createdAt,value
2022-10-11T00:01:24.987Z,75.18
2022-10-11T00:03:57.256Z,75.14
2022-10-11T00:06:29.283Z,75.29
2022-10-11T00:09:01.686Z,75.15
2022-10-11T00:11:34.011Z,75.10
2022-10-11T00:14:06.098Z,75.22
2022-10-11T00:16:39.006Z,75.32
2022-10-11T00:19:11.406Z,75.13
2022-10-11T00:21:43.551Z,74.63
2022-10-11T00:24:17.466Z,74.50
2022-10-11T00:26:49.286Z,74.61
2022-10-11T00:29:21.442Z,74.68
2022-10-11T00:31:53.716Z,74.56
2022-10-11T00:34:25.762Z,74.60
2022-10-11T00:36:57.597Z,74.78
2022-10-11T00:39:29.691Z,75.23
2022-10-11T00:42:01.976Z,76.02
2022-10-11T00:44:35.249Z,76.69
2022-10-11T00:47:11.469Z,76.52
2022-10-11T00:49:46.706Z,76.60
2022-10-11T00:52:29.094Z,76.63
2022-10-11T00:55:04.401Z,76.96
2022-10-11T00:57:39.649Z,77.18
2022-10-11T01:00:14.852Z,77.58
2022-10-11T01:02:47.399Z,77.51
2022-10-11T01:05:29.903Z,76.84
2022-10-11T01:08:03.498Z,76.81
2022-10-11T01:10:36.465Z,76.92
2022-10-11T01:13:19.935Z,77.27
2022-10-11T01:15:56.969Z,78.06
2022-10-11T01:18:36.519Z,79.09
2022-10-11T01:21:17.843Z,79.04
2022-10-11T01:24:20.744Z,78.98
2022-10-11T01:27:25.871Z,79.12
2022-10-11T01:30:06.026Z,78.78
2022-10-11T01:32:45.394Z,78.79
2022-10-11T01:35:28.163Z,78.85
2022-10-11T01:38:10.299Z,78.22
2022-10-11T01:40:47.286Z,78.06
2022-10-11T01:43:21.675Z,78.17
2022-10-11T01:45:55.757Z,77.92
2022-10-11T01:48:28.056Z,78.06
2022-10-11T01:51:04.028Z,78.78
2022-10-11T01:54:04.311Z,78.97
2022-10-11T01:56:53.129Z,78.84
2022-10-11T01:59:41.950Z,78.67
2022-10-11T02:02:27.888Z,78.75
2022-10-11T02:05:10.699Z,78.77
2022-10-11T02:07:48.476Z,78.65
2022-10-11T02:10:27.935Z,78.32
2022-10-11T02:13:04.669Z,78.65
2022-10-11T02:15:39.587Z,78.47
2022-10-11T02:18:12.811Z,78.63
2022-10-11T02:20:46.454Z,78.77
2022-10-11T02:23:21.178Z,79.27
2022-10-11T02:25:55.700Z,78.92
2022-10-11T02:28:33.545Z,78.48
2022-10-11T02:31:08.169Z,78.27
2022-10-11T02:33:45.707Z,78.56
2022-10-11T02:36:25.860Z,78.42
2022-10-11T02:39:06.691Z,78.75
2022-10-11T02:41:43.198Z,79.05
2022-10-11T02:44:19.726Z,79.09
2022-10-11T02:46:53.481Z,78.87
2022-10-11T02:49:27.417Z,78.91
2022-10-11T02:51:59.759Z,79.01
2022-10-11T02:54:32.194Z,79.09
2022-10-11T02:57:05.046Z,79.12
2022-10-11T02:59:39.858Z,78.57
2022-10-11T03:02:12.005Z,78.34
2022-10-11T03:04:44.259Z,78.78
2022-10-11T03:07:16.618Z,78.77
2022-10-11T03:09:48.475Z,79.06
2022-10-11T03:12:20.516Z,78.80
2022-10-11T03:14:54.758Z,78.70
2022-10-11T03:17:42.025Z,78.47
2022-10-11T03:20:14.659Z,78.15
2022-10-11T03:22:46.766Z,77.84
2022-10-11T03:25:19.323Z,78.40
2022-10-11T03:27:51.579Z,78.14
2022-10-11T03:30:23.878Z,77.96
2022-10-11T03:32:56.189Z,78.50
2022-10-11T03:35:28.038Z,78.29
2022-10-11T03:38:01.516Z,78.29
2022-10-11T03:40:33.525Z,78.40
2022-10-11T03:43:05.576Z,78.64
2022-10-11T03:45:37.774Z,78.25
2022-10-11T03:48:10.492Z,77.93
2022-10-11T03:50:42.394Z,78.30
2022-10-11T03:53:14.539Z,78.01
2022-10-11T03:55:46.523Z,77.73
2022-10-11T03:58:18.594Z,77.28
2022-10-11T04:00:51.802Z,77.24
2022-10-11T04:03:24.551Z,77.24
2022-10-11T04:05:56.772Z,77.43
2022-10-11T04:08:28.948Z,77.07
2022-10-11T04:11:00.815Z,77.32
2022-10-11T04:13:32.881Z,77.34
2022-10-11T04:16:05.186Z,77.33
2022-10-11T04:18:37.439Z,77.43
2022-10-11T04:21:10.200Z,77.22
2022-10-11T04:23:42.371Z,77.31
2022-10-11T04:26:14.260Z,76.82
2022-10-11T04:28:46.316Z,77.00
2022-10-11T04:31:18.607Z,76.99
2022-10-11T04:33:51.072Z,76.63
2022-10-11T04:36:25.596Z,76.45
2022-10-11T04:38:58.464Z,76.40
2022-10-11T04:41:31.034Z,76.08
2022-10-11T04:44:03.992Z,76.05
2022-10-11T04:46:36.290Z,75.79
2022-10-11T04:49:08.363Z,75.73
2022-10-11T04:51:40.808Z,76.07
2022-10-11T04:54:13.448Z,75.99
2022-10-11T04:56:45.290Z,76.40
2022-10-11T04:59:17.394Z,76.42
2022-10-11T05:01:49.434Z,76.29
2022-10-11T05:04:24.276Z,76.42
2022-10-11T05:06:58.501Z,76.78
2022-10-11T05:09:30.889Z,76.83
2022-10-11T05:12:02.820Z,76.47
2022-10-11T05:14:35.053Z,76.36
2022-10-11T05:17:07.071Z,76.40
2022-10-11T05:19:39.189Z,76.35
2022-10-11T05:22:11.155Z,76.25
2022-10-11T05:24:43.028Z,76.31
2022-10-11T05:27:15.764Z,76.18
2022-10-11T05:29:47.797Z,76.05
2022-10-11T05:32:20.778Z,76.12
2022-10-11T05:34:55.870Z,75.92
2022-10-11T05:37:27.807Z,75.66
2022-10-11T05:40:00.093Z,75.50
2022-10-11T05:42:32.065Z,75.57
2022-10-11T05:45:04.268Z,75.66
2022-10-11T05:47:37.341Z,76.06
2022-10-11T05:50:10.785Z,75.83
2022-10-11T05:52:42.746Z,75.93
2022-10-11T05:55:14.972Z,75.95
2022-10-11T05:57:47.618Z,76.19
2022-10-11T06:00:20.288Z,76.46
2022-10-11T06:02:52.234Z,77.17
2022-10-11T06:05:24.416Z,76.82
2022-10-11T06:07:58.276Z,77.06
2022-10-11T06:10:30.308Z,76.94
2022-10-11T06:13:02.459Z,76.93
2022-10-11T06:15:35.107Z,76.79
2022-10-11T06:18:07.385Z,76.82
2022-10-11T06:20:39.538Z,76.67
2022-10-11T06:23:12.146Z,76.79
2022-10-11T06:25:44.390Z,76.61
2022-10-11T06:28:16.722Z,76.51
2022-10-11T06:30:49.017Z,76.88
2022-10-11T06:33:21.400Z,77.43
2022-10-11T06:36:00.702Z,77.48
2022-10-11T06:38:32.765Z,77.46
2022-10-11T06:41:13.754Z,77.31
2022-10-11T06:43:45.856Z,76.91
2022-10-11T06:46:18.324Z,77.05
2022-10-11T06:48:51.583Z,76.70
2022-10-11T06:51:24.838Z,76.72
2022-10-11T07:09:29.108Z,76.13
2022-10-11T07:12:01.108Z,75.96
2022-10-11T07:14:33.475Z,75.59
2022-10-11T07:17:05.631Z,75.85
2022-10-11T07:19:38.282Z,75.48
2022-10-11T07:22:10.302Z,75.83
2022-10-11T07:24:43.772Z,76.39
2022-10-11T07:27:15.834Z,75.70
2022-10-11T07:29:48.056Z,75.31
2022-10-11T07:32:19.987Z,74.99
2022-10-11T07:34:51.924Z,75.10
2022-10-11T07:37:24.010Z,75.34
2022-10-11T07:39:56.240Z,75.22
2022-10-11T07:42:28.539Z,74.73
2022-10-11T07:45:00.541Z,74.96
2022-10-11T07:47:32.787Z,74.51
2022-10-11T07:50:05.389Z,74.15
2022-10-11T07:52:40.570Z,74.14
2022-10-11T07:55:12.911Z,74.02
2022-10-11T07:57:45.262Z,73.99
2022-10-11T08:00:18.239Z,74.03
2022-10-11T08:02:50.143Z,74.57
2022-10-11T08:05:22.457Z,74.15
2022-10-11T08:12:04.078Z,73.93
2022-10-11T08:14:36.660Z,73.58
2022-10-11T08:17:09.042Z,74.25
2022-10-11T08:19:41.027Z,74.01
2022-10-11T08:22:13.131Z,74.02
2022-10-11T08:24:45.232Z,73.80
2022-10-11T08:27:17.210Z,73.44
2022-10-11T08:29:49.353Z,73.02
2022-10-11T08:32:21.350Z,73.56
2022-10-11T08:34:53.222Z,73.52
2022-10-11T08:37:25.253Z,73.26
2022-10-11T08:39:57.133Z,73.16
2022-10-11T08:42:36.132Z,72.72
2022-10-11T08:45:18.263Z,72.76
2022-10-11T08:47:51.119Z,71.47
2022-10-11T08:50:24.950Z,71.13
2022-10-11T08:53:00.920Z,71.63
2022-10-11T08:55:39.809Z,71.26
2022-10-11T08:58:15.678Z,71.34
2022-10-11T09:00:51.455Z,70.52
2022-10-11T09:03:32.757Z,70.06
2022-10-11T09:06:13.543Z,69.84
2022-10-11T09:09:04.585Z,69.38
2022-10-11T09:11:48.579Z,69.13
2022-10-11T09:14:53.100Z,68.81
2022-10-11T09:17:38.764Z,68.20
2022-10-11T09:20:42.774Z,68.70
2022-10-11T09:23:33.118Z,67.15
2022-10-11T09:26:12.598Z,66.87
2022-10-11T09:29:00.770Z,66.73
2022-10-11T09:31:34.106Z,66.36
2022-10-11T09:34:14.782Z,65.95
2022-10-11T09:36:56.138Z,65.85
2022-10-11T09:39:33.440Z,64.94
2022-10-11T09:42:08.186Z,64.47
2022-10-11T09:44:46.886Z,64.34
2022-10-11T09:47:21.734Z,63.77
2022-10-11T09:50:01.513Z,63.37
2022-10-11T09:52:34.333Z,62.94
2022-10-11T09:55:07.510Z,62.55
2022-10-11T09:57:42.170Z,62.40
2022-10-11T10:00:24.506Z,62.28
2022-10-11T10:02:58.176Z,61.45
2022-10-11T10:05:31.190Z,61.26
2022-10-11T10:08:23.083Z,61.13
2022-10-11T10:11:05.766Z,61.01
2022-10-11T10:13:46.366Z,60.71
2022-10-11T10:16:30.027Z,60.21
2022-10-11T10:19:04.271Z,60.41
2022-10-11T10:21:39.626Z,59.28
2022-10-11T10:24:22.043Z,58.09
2022-10-11T10:30:03.757Z,58.72
2022-10-11T10:32:42.813Z,58.65
2022-10-11T10:35:28.037Z,59.32
2022-10-11T10:38:07.734Z,57.62
2022-10-11T10:40:49.913Z,57.39
2022-10-11T10:43:25.207Z,58.07
2022-10-11T10:46:09.951Z,58.07
2022-10-11T10:51:57.493Z,56.78
2022-10-11T10:54:41.465Z,54.93
2022-10-11T10:57:24.575Z,53.97
2022-10-11T11:00:15.735Z,53.73
2022-10-11T11:02:57.416Z,53.39
2022-10-11T11:05:42.278Z,53.10
2022-10-11T11:08:24.434Z,53.08
2022-10-11T11:11:00.095Z,52.55
2022-10-11T11:13:42.660Z,52.73
2022-10-11T11:16:20.770Z,52.25
2022-10-11T11:18:59.264Z,51.80
2022-10-11T11:21:44.164Z,51.28
2022-10-11T11:24:24.972Z,51.12
2022-10-11T11:27:05.169Z,50.34
2022-10-11T11:29:54.522Z,49.91
2022-10-11T11:32:35.933Z,50.59
2022-10-11T11:35:16.374Z,49.70
2022-10-11T11:37:59.245Z,48.65
2022-10-11T11:40:38.330Z,48.08
2022-10-11T11:43:20.330Z,47.53
2022-10-11T11:45:56.597Z,47.00
2022-10-11T11:48:29.503Z,46.40
2022-10-11T11:51:07.213Z,46.05
2022-10-11T11:53:59.158Z,46.56
2022-10-11T11:56:44.915Z,47.43
2022-10-11T11:59:22.208Z,48.31
2022-10-11T12:02:03.242Z,48.97
2022-10-11T12:04:39.205Z,49.39
2022-10-11T12:07:17.642Z,49.49
2022-10-11T12:09:54.468Z,50.01
2022-10-11T12:12:34.010Z,49.89
2022-10-11T12:15:18.905Z,49.38
2022-10-11T12:18:15.622Z,49.81
2022-10-11T12:20:47.880Z,49.15
2022-10-11T12:23:49.536Z,47.66
2022-10-11T12:26:38.695Z,46.95
2022-10-11T12:29:28.786Z,47.03
2022-10-11T12:32:53.557Z,47.26
2022-10-11T12:36:07.273Z,47.35
2022-10-11T12:38:41.938Z,46.43
2022-10-11T12:41:50.887Z,46.32
2022-10-11T12:44:27.748Z,45.75
2022-10-11T12:47:26.854Z,45.43
2022-10-11T12:50:12.801Z,44.38
2022-10-11T12:52:55.586Z,44.10
2022-10-11T12:55:43.113Z,43.68
2022-10-11T12:58:30.446Z,43.85
2022-10-11T13:01:27.889Z,44.00
2022-10-11T13:04:08.111Z,43.97
2022-10-11T13:06:48.702Z,43.76
2022-10-11T13:09:28.643Z,43.84
2022-10-11T13:12:05.530Z,43.77
2022-10-11T13:14:44.008Z,43.71
2022-10-11T13:17:21.373Z,42.28
2022-10-11T13:20:02.503Z,41.34
2022-10-11T13:22:40.918Z,41.70
2022-10-11T13:25:18.754Z,41.66
2022-10-11T13:27:53.568Z,41.43
2022-10-11T13:30:26.569Z,41.86
2022-10-11T13:33:00.415Z,41.95
2022-10-11T13:35:35.648Z,42.15
2022-10-11T13:38:20.612Z,42.76
2022-10-11T13:40:53.600Z,43.31
2022-10-11T13:43:28.994Z,42.94
2022-10-11T13:46:05.058Z,42.23
2022-10-11T13:48:43.119Z,42.24
2022-10-11T13:51:28.216Z,42.16
2022-10-11T13:54:00.021Z,42.25
2022-10-11T13:56:33.915Z,42.62
2022-10-11T13:59:06.695Z,42.32
2022-10-11T14:01:45.473Z,42.32
2022-10-11T14:04:19.521Z,42.50
2022-10-11T14:06:58.135Z,42.76
2022-10-11T14:09:33.774Z,42.85
2022-10-11T14:12:32.977Z,42.49
2022-10-11T14:15:06.371Z,43.27
2022-10-11T14:17:43.763Z,43.45
2022-10-11T14:20:23.769Z,43.14
2022-10-11T14:22:55.900Z,42.89
2022-10-11T14:25:27.989Z,42.98
2022-10-11T14:28:00.375Z,43.58
2022-10-11T14:30:33.259Z,43.60
2022-10-11T14:33:06.461Z,43.64
2022-10-11T14:35:39.073Z,44.18
2022-10-11T14:38:14.284Z,44.21
2022-10-11T14:40:45.111Z,43.87
2022-10-11T14:43:17.140Z,43.85
2022-10-11T14:45:50.517Z,44.22
2022-10-11T14:48:43.177Z,44.24
2022-10-11T14:51:18.773Z,44.68
2022-10-11T14:53:49.167Z,44.60
2022-10-11T14:56:21.993Z,45.77
2022-10-11T14:58:54.688Z,46.60
2022-10-11T15:01:27.011Z,47.26
2022-10-11T15:03:58.874Z,47.93
2022-10-11T15:06:35.163Z,48.05
2022-10-11T15:09:08.308Z,48.28
2022-10-11T15:11:40.933Z,48.50
2022-10-11T15:14:12.882Z,48.66
2022-10-11T15:16:45.283Z,49.07
2022-10-11T15:19:19.646Z,49.23
2022-10-11T15:21:52.271Z,49.55
2022-10-11T15:24:24.167Z,49.25
2022-10-11T15:26:56.068Z,49.69
2022-10-11T15:29:27.981Z,49.67
2022-10-11T15:32:00.127Z,50.21
2022-10-11T15:34:32.434Z,50.61
2022-10-11T15:37:05.227Z,50.75
2022-10-11T15:39:39.134Z,50.78
2022-10-11T15:42:11.149Z,51.15
2022-10-11T15:44:43.373Z,50.97
2022-10-11T15:47:15.675Z,51.14
2022-10-11T15:50:12.530Z,51.48
2022-10-11T15:52:47.781Z,51.57
2022-10-11T15:55:20.221Z,52.04
2022-10-11T15:57:52.718Z,52.02
2022-10-11T16:00:25.716Z,52.83
2022-10-11T16:02:58.494Z,53.16
2022-10-11T16:05:30.668Z,53.73
2022-10-11T16:08:03.025Z,53.55
2022-10-11T16:10:35.229Z,53.60
2022-10-11T16:13:07.652Z,53.97
2022-10-11T16:15:41.673Z,54.64
2022-10-11T16:18:16.339Z,54.94
2022-10-11T16:20:51.103Z,54.87
2022-10-11T16:23:24.340Z,54.99
2022-10-11T16:26:08.539Z,55.36
2022-10-11T16:28:42.056Z,55.50
2022-10-11T16:31:18.282Z,55.68
2022-10-11T16:33:52.904Z,55.80
2022-10-11T16:36:40.688Z,55.62
2022-10-11T16:39:16.604Z,55.85
2022-10-11T16:41:49.021Z,56.01
2022-10-11T16:44:25.114Z,56.40
2022-10-11T16:46:57.518Z,56.60
2022-10-11T16:49:31.348Z,56.74
2022-10-11T16:52:04.532Z,57.01
2022-10-11T16:54:36.642Z,57.17
2022-10-11T16:57:09.398Z,57.34
2022-10-11T16:59:42.061Z,57.23
2022-10-11T17:02:18.814Z,57.50
2022-10-11T17:04:51.804Z,57.61
2022-10-11T17:07:24.804Z,57.64
2022-10-11T17:09:58.167Z,57.58
2022-10-11T17:12:31.967Z,57.43
2022-10-11T17:15:04.906Z,57.52
2022-10-11T17:17:38.093Z,57.65
2022-10-11T17:20:11.130Z,57.90
2022-10-11T17:22:44.499Z,57.99
2022-10-11T17:25:16.581Z,58.26
2022-10-11T17:27:48.866Z,58.63
2022-10-11T17:30:20.898Z,58.64
2022-10-11T17:32:53.349Z,58.96
2022-10-11T17:35:25.547Z,59.13
2022-10-11T17:37:57.412Z,59.20
2022-10-11T17:40:29.948Z,59.25
2022-10-11T17:43:02.034Z,59.16
2022-10-11T17:45:34.065Z,59.17
2022-10-11T17:48:07.013Z,59.37
2022-10-11T17:50:45.882Z,59.23
2022-10-11T17:53:21.699Z,59.37
2022-10-11T17:55:54.386Z,59.59
2022-10-11T17:58:26.863Z,59.59
2022-10-11T18:01:04.508Z,59.59
2022-10-11T18:03:36.948Z,59.53
2022-10-11T18:06:13.861Z,59.68
2022-10-11T18:08:46.334Z,59.85
2022-10-11T18:11:20.632Z,60.18
2022-10-11T18:13:54.010Z,60.30
2022-10-11T18:16:28.102Z,60.42
2022-10-11T18:18:59.443Z,60.47
2022-10-11T18:21:34.739Z,60.39
2022-10-11T18:24:10.896Z,60.70
2022-10-11T18:26:43.599Z,60.65
2022-10-11T18:29:15.878Z,60.66
2022-10-11T18:31:48.555Z,60.68
2022-10-11T18:34:21.246Z,60.64
2022-10-11T18:36:53.326Z,60.73
2022-10-11T18:39:25.545Z,60.94
2022-10-11T18:41:57.977Z,60.87
2022-10-11T18:44:29.832Z,61.00
2022-10-11T18:47:02.301Z,60.94
2022-10-11T18:49:34.445Z,60.88
2022-10-11T18:52:08.023Z,60.94
2022-10-11T18:54:40.217Z,60.86
2022-10-11T18:57:12.370Z,61.12
2022-10-11T18:59:44.436Z,61.34
2022-10-11T19:02:16.893Z,61.60
2022-10-11T19:04:52.741Z,61.73
2022-10-11T19:07:25.400Z,61.79
2022-10-11T19:09:57.365Z,62.04
2022-10-11T19:12:30.735Z,61.97
2022-10-11T19:15:02.899Z,62.03
2022-10-11T19:17:35.245Z,62.07
2022-10-11T19:20:08.771Z,62.02
2022-10-11T19:22:41.087Z,62.03
2022-10-11T19:25:13.175Z,61.98
2022-10-11T19:27:48.397Z,62.19
2022-10-11T19:30:21.783Z,62.07
2022-10-11T19:32:54.335Z,62.03
2022-10-11T19:35:26.341Z,62.07
2022-10-11T19:37:58.389Z,61.80
2022-10-11T19:40:33.722Z,61.41
2022-10-11T19:43:06.519Z,61.38
2022-10-11T19:45:39.157Z,61.45
2022-10-11T19:48:11.240Z,61.35
2022-10-11T19:50:44.086Z,61.54
2022-10-11T19:53:16.576Z,61.70
2022-10-11T19:55:48.568Z,61.74
2022-10-11T19:58:20.980Z,61.85
2022-10-11T20:01:01.860Z,62.13
2022-10-11T20:03:34.283Z,62.37
2022-10-11T20:06:08.618Z,62.41
2022-10-11T20:08:41.003Z,62.46
2022-10-11T20:11:14.269Z,62.37
2022-10-11T20:13:46.825Z,62.08
2022-10-11T20:16:21.379Z,61.97
2022-10-11T20:18:54.434Z,61.74
2022-10-11T20:21:29.073Z,61.97
2022-10-11T20:24:04.036Z,61.98
2022-10-11T20:26:35.948Z,62.03
2022-10-11T20:29:08.202Z,61.86
2022-10-11T20:31:40.890Z,61.96
2022-10-11T20:34:13.346Z,61.67
2022-10-11T20:36:49.076Z,61.89
2022-10-11T20:39:21.510Z,61.66
2022-10-11T20:41:53.450Z,62.02
2022-10-11T20:44:26.491Z,62.20
2022-10-11T20:47:03.713Z,62.00
2022-10-11T20:49:38.085Z,62.06
2022-10-11T20:52:10.028Z,61.90
2022-10-11T20:54:41.982Z,62.10
2022-10-11T20:57:14.226Z,62.31
2022-10-11T20:59:46.292Z,62.51
2022-10-11T21:02:19.191Z,62.19
2022-10-11T21:04:51.950Z,62.21
2022-10-11T21:07:24.285Z,62.07
2022-10-11T21:09:57.179Z,62.21
2022-10-11T21:12:29.047Z,62.22
2022-10-11T21:15:01.239Z,62.26
2022-10-11T21:17:33.284Z,62.19
2022-10-11T21:20:06.422Z,62.24
2022-10-11T21:22:38.794Z,62.01
2022-10-11T21:25:11.823Z,62.08
2022-10-11T21:27:43.741Z,61.97
2022-10-11T21:30:15.849Z,61.92
2022-10-11T21:32:48.132Z,62.14
2022-10-11T21:35:20.129Z,62.33
2022-10-11T21:37:52.362Z,62.55
2022-10-11T21:40:24.539Z,62.89
2022-10-11T21:42:56.418Z,63.01
2022-10-11T21:45:28.915Z,62.87
2022-10-11T21:48:00.856Z,62.56
2022-10-11T21:50:33.230Z,62.73
2022-10-11T21:53:05.151Z,62.52
2022-10-11T21:55:37.224Z,62.41
2022-10-11T21:58:09.958Z,62.40
2022-10-11T22:00:42.066Z,62.41
2022-10-11T22:03:14.028Z,62.35
2022-10-11T22:05:47.910Z,62.49
2022-10-11T22:08:19.910Z,62.61
2022-10-11T22:10:57.557Z,62.58
2022-10-11T22:13:31.253Z,62.57
2022-10-11T22:16:07.122Z,62.91
2022-10-11T22:18:41.418Z,62.80
2022-10-11T22:21:15.998Z,63.08
2022-10-11T22:23:47.717Z,63.02
2022-10-11T22:26:21.703Z,63.25
2022-10-11T22:28:54.553Z,63.50
2022-10-11T22:31:26.983Z,63.59
2022-10-11T22:34:00.518Z,63.80
2022-10-11T22:36:33.766Z,63.65
2022-10-11T22:39:08.261Z,63.81
2022-10-11T22:41:40.480Z,63.87
2022-10-11T22:44:13.551Z,64.07
2022-10-11T22:46:45.982Z,64.04
2022-10-11T22:49:18.118Z,64.00
2022-10-11T22:51:50.734Z,63.58
2022-10-11T22:54:22.836Z,63.52
2022-10-11T23:02:07.574Z,62.90
2022-10-11T23:04:39.780Z,62.95
2022-10-11T23:07:11.765Z,62.97
2022-10-11T23:09:43.707Z,63.11
2022-10-11T23:12:16.073Z,63.09
2022-10-11T23:14:48.083Z,63.16
2022-10-11T23:17:21.193Z,63.05
2022-10-11T23:19:53.402Z,62.83
2022-10-11T23:22:25.980Z,62.93
2022-10-11T23:24:58.355Z,62.85
2022-10-11T23:27:32.453Z,62.97
2022-10-11T23:30:05.311Z,63.34
2022-10-11T23:32:38.997Z,63.35
2022-10-11T23:35:11.893Z,63.45
2022-10-11T23:37:43.896Z,63.90
2022-10-11T23:40:16.415Z,64.33
2022-10-11T23:42:48.728Z,64.56
2022-10-11T23:45:20.836Z,64.70
2022-10-11T23:47:53.030Z,64.69
2022-10-11T23:50:27.495Z,64.83
2022-10-11T23:52:59.450Z,64.54
2022-10-11T23:55:31.725Z,64.38
2022-10-11T23:58:04.027Z,64.44
